Time;durP1;ratioP1;P1;durP2;ratioP2;P2;SDS_P1;SDS_P2;PMS_P1;PMS_P2;Temp;Humidity;BMP_temperature;BMP_pressure;BME280_temperature;BME280_humidity;BME280_pressure;Samples;Min_cycle;Max_cycle;Signal;HPM_P1;HPM_P2
2021/10/25 00:00:13;;;;;;;57.80;40.20;;;;;;;4.55;70.87;101581.98;118476;1176;21913;-75
2021/10/25 00:03:02;;;;;;;52.90;35.40;;;;;;;4.52;70.76;101579.15;118683;1174;21888;-75
2021/10/25 00:05:32;;;;;;;67.00;46.40;;;;;;;4.46;70.68;101576.57;118798;1174;21870;-76
2021/10/25 00:08:00;;;;;;;75.10;48.30;;;;;;;4.42;70.73;101577.33;118369;1174;21857;-76
2021/10/25 00:10:28;;;;;;;54.60;34.30;;;;;;;4.40;70.75;101576.28;118378;1177;21874;-77
2021/10/25 00:12:56;;;;;;;52.30;31.40;;;;;;;4.36;70.61;101574.80;118711;1174;22860;-75
2021/10/25 00:15:23;;;;;;;55.30;33.30;;;;;;;4.30;70.54;101576.23;118867;1173;22875;-75
2021/10/25 00:17:51;;;;;;;52.60;33.20;;;;;;;4.24;70.56;101575.16;118859;1165;22885;-75
2021/10/25 00:20:20;;;;;;;51.20;28.60;;;;;;;4.23;70.71;101571.42;118862;1174;21865;-75
2021/10/25 00:22:48;;;;;;;53.80;31.70;;;;;;;4.26;70.98;101574.21;118755;1174;21854;-76
2021/10/25 00:25:16;;;;;;;48.00;32.50;;;;;;;4.29;70.98;101572.27;118874;1170;22091;-75
2021/10/25 00:27:44;;;;;;;54.90;32.80;;;;;;;4.31;70.90;101571.12;119376;1167;21907;-75
2021/10/25 00:30:11;;;;;;;50.20;32.70;;;;;;;4.34;70.92;101572.30;119226;1167;21880;-77
2021/10/25 00:32:39;;;;;;;48.30;30.40;;;;;;;4.36;70.84;101578.49;119194;1170;23524;-76
2021/10/25 00:35:08;;;;;;;46.30;29.90;;;;;;;4.36;70.69;101577.91;119210;1170;21908;-77
2021/10/25 00:37:37;;;;;;;44.20;30.60;;;;;;;4.36;70.76;101575.52;119193;1168;21856;-76
2021/10/25 00:40:07;;;;;;;47.00;29.50;;;;;;;4.37;70.84;101572.27;119216;1170;23460;-76
2021/10/25 00:42:36;;;;;;;46.50;31.30;;;;;;;4.38;70.85;101567.68;119203;1170;22869;-76
2021/10/25 00:45:05;;;;;;;49.50;30.30;;;;;;;4.38;70.76;101565.09;119255;1170;21870;-76
2021/10/25 00:47:33;;;;;;;47.90;32.30;;;;;;;4.38;70.72;101564.40;119195;1171;21851;-77
2021/10/25 00:50:02;;;;;;;51.00;30.20;;;;;;;4.40;70.71;101568.79;119049;1171;21875;-76
2021/10/25 00:52:31;;;;;;;45.20;31.90;;;;;;;4.41;70.59;101568.38;119301;1167;21860;-75
2021/10/25 00:54:59;;;;;;;49.30;31.60;;;;;;;4.40;70.36;101562.70;119025;1171;21856;-75
2021/10/25 00:57:29;;;;;;;55.20;38.30;;;;;;;4.38;70.25;101560.70;119194;1168;21874;-76
2021/10/25 00:59:57;;;;;;;50.50;31.40;;;;;;;4.35;69.85;101560.36;119211;1170;23433;-76
2021/10/25 01:02:25;;;;;;;45.40;29.80;;;;;;;4.29;69.49;101558.13;119252;1167;23595;-76
2021/10/25 01:04:53;;;;;;;39.60;27.40;;;;;;;4.22;69.30;101555.73;119136;1171;21856;-76
2021/10/25 01:07:21;;;;;;;39.30;26.30;;;;;;;4.15;69.23;101557.09;119212;1170;23010;-76
2021/10/25 01:09:50;;;;;;;39.50;27.70;;;;;;;4.09;69.30;101555.95;119176;1170;23524;-76
2021/10/25 01:12:18;;;;;;;39.30;26.80;;;;;;;4.04;69.62;101551.34;119176;1168;21865;-76
2021/10/25 01:14:47;;;;;;;41.50;26.90;;;;;;;4.01;70.01;101549.80;119190;1165;21901;-77
2021/10/25 01:17:14;;;;;;;42.20;27.80;;;;;;;3.97;70.04;101544.64;119051;1171;23667;-77
2021/10/25 01:19:42;;;;;;;42.00;26.70;;;;;;;3.93;70.00;101543.48;119190;1164;21856;-77
2021/10/25 01:22:10;;;;;;;39.30;26.40;;;;;;;3.91;70.04;101542.04;119225;1170;23442;-76
2021/10/25 01:24:42;;;;;;;39.90;27.10;;;;;;;3.88;70.04;101541.05;119207;1171;22607;-76
2021/10/25 01:27:10;;;;;;;45.00;29.80;;;;;;;3.85;70.15;101537.54;119190;1167;23460;-75
2021/10/25 01:29:38;;;;;;;39.70;28.10;;;;;;;3.84;70.21;101535.36;119178;1170;23156;-76
2021/10/25 01:32:07;;;;;;;46.20;27.20;;;;;;;3.84;70.34;101534.86;119198;1170;22878;-76
2021/10/25 01:34:35;;;;;;;43.60;26.90;;;;;;;3.83;70.39;101530.69;119150;1170;22384;-75
2021/10/25 01:37:05;;;;;;;37.30;25.50;;;;;;;3.85;70.51;101526.61;119075;1171;21869;-76
2021/10/25 01:39:33;;;;;;;41.00;26.40;;;;;;;3.86;70.65;101524.05;119130;1171;21900;-76
2021/10/25 01:42:02;;;;;;;42.40;25.30;;;;;;;3.90;70.70;101522.79;119193;1170;22712;-76
2021/10/25 01:44:31;;;;;;;43.90;27.50;;;;;;;3.89;70.59;101515.49;119141;1170;22891;-76
2021/10/25 01:46:59;;;;;;;47.10;28.60;;;;;;;3.86;70.34;101514.86;119218;1170;23519;-76
2021/10/25 01:49:31;;;;;;;45.20;27.80;;;;;;;3.79;70.15;101511.11;119236;1170;23433;-76
2021/10/25 01:52:00;;;;;;;45.70;27.10;;;;;;;3.71;70.23;101504.05;119230;1170;21870;-76
2021/10/25 01:54:28;;;;;;;42.60;25.50;;;;;;;3.69;70.52;101499.13;119193;1170;21889;-76
2021/10/25 01:56:57;;;;;;;39.00;25.50;;;;;;;3.70;70.64;101497.00;119271;1170;23433;-76
2021/10/25 01:59:25;;;;;;;43.50;25.50;;;;;;;3.70;70.68;101496.14;119172;1171;22893;-76
2021/10/25 02:01:53;;;;;;;39.80;25.30;;;;;;;3.68;70.63;101493.83;119216;1170;21864;-76
2021/10/25 02:04:21;;;;;;;35.50;23.40;;;;;;;3.62;70.60;101489.84;118948;1173;21870;-76
2021/10/25 02:06:49;;;;;;;39.60;25.30;;;;;;;3.57;70.70;101486.98;118863;1173;22510;-76
2021/10/25 02:09:17;;;;;;;38.10;24.10;;;;;;;3.54;70.82;101482.48;118688;1176;22629;-76
2021/10/25 02:11:46;;;;;;;36.80;24.90;;;;;;;3.53;71.03;101476.09;118751;1176;23643;-76
2021/10/25 02:14:14;;;;;;;38.50;24.50;;;;;;;3.50;71.01;101474.55;118818;1171;23440;-76
2021/10/25 02:16:43;;;;;;;40.00;24.60;;;;;;;3.47;71.03;101470.89;118530;1176;22803;-76
2021/10/25 02:19:11;;;;;;;40.70;25.10;;;;;;;3.46;71.12;101469.77;118401;1176;21861;-76
2021/10/25 02:21:44;;;;;;;39.40;23.70;;;;;;;3.43;71.12;101465.08;118265;1178;23542;-76
2021/10/25 02:24:12;;;;;;;37.30;23.40;;;;;;;3.41;71.24;101461.69;118255;1178;21925;-77
2021/10/25 02:26:42;;;;;;;33.60;22.90;;;;;;;3.39;71.21;101461.98;118285;1177;23436;-76
2021/10/25 02:29:10;;;;;;;38.40;23.70;;;;;;;3.37;71.23;101457.59;118367;1163;21897;-76
2021/10/25 02:31:38;;;;;;;32.90;22.00;;;;;;;3.37;71.31;101456.05;118741;1174;21850;-76
2021/10/25 02:34:06;;;;;;;38.10;23.30;;;;;;;3.36;71.37;101458.55;118630;1174;21870;-76
2021/10/25 02:36:36;;;;;;;36.30;22.60;;;;;;;3.34;71.32;101456.23;118661;1175;21867;-75
2021/10/25 02:39:08;;;;;;;37.10;23.40;;;;;;;3.35;71.45;101451.65;118827;1172;22878;-75
2021/10/25 02:41:37;;;;;;;35.30;20.50;;;;;;;3.35;71.46;101452.52;118819;1174;21874;-75
2021/10/25 02:44:05;;;;;;;34.30;21.10;;;;;;;3.34;71.43;101452.20;118753;1174;21891;-76
2021/10/25 02:46:34;;;;;;;29.20;19.90;;;;;;;3.34;71.42;101445.06;118904;1170;21864;-76
2021/10/25 02:49:02;;;;;;;31.80;21.00;;;;;;;3.34;71.37;101446.13;118998;1174;23514;-76
2021/10/25 02:51:30;;;;;;;33.10;20.90;;;;;;;3.35;71.45;101448.34;118835;1174;21851;-76
2021/10/25 02:53:59;;;;;;;36.20;20.00;;;;;;;3.36;71.48;101447.25;118869;1174;23482;-76
2021/10/25 02:56:35;;;;;;;32.50;21.70;;;;;;;3.36;71.42;101447.95;118839;1174;22669;-76
2021/10/25 02:59:08;;;;;;;31.20;20.20;;;;;;;3.37;71.47;101448.05;118845;1174;22692;-76
2021/10/25 03:01:38;;;;;;;32.50;20.20;;;;;;;3.37;71.47;101449.23;118437;1177;21847;-76
2021/10/25 03:04:07;;;;;;;30.20;20.20;;;;;;;3.38;71.41;101448.48;118399;1177;22305;-76
2021/10/25 03:06:35;;;;;;;30.80;20.40;;;;;;;3.39;71.37;101443.73;118406;1174;23544;-75
2021/10/25 03:09:05;;;;;;;26.90;20.10;;;;;;;3.39;71.23;101439.35;118741;1174;21876;-75
2021/10/25 03:11:34;;;;;;;29.30;20.80;;;;;;;3.39;71.18;101434.69;118325;1176;21875;-76
2021/10/25 03:14:03;;;;;;;31.00;20.00;;;;;;;3.40;71.33;101437.23;118443;1176;22339;-76
2021/10/25 03:16:38;;;;;;;31.50;19.50;;;;;;;3.37;71.27;101437.20;118411;1176;21855;-75
2021/10/25 03:19:08;;;;;;;29.60;18.80;;;;;;;3.38;71.24;101434.40;118577;1173;21847;-75
2021/10/25 03:21:36;;;;;;;28.50;19.10;;;;;;;3.36;71.24;101430.30;118877;1172;21874;-75
2021/10/25 03:24:05;;;;;;;26.40;18.70;;;;;;;3.35;71.15;101422.23;119014;1172;21896;-74
2021/10/25 03:26:33;;;;;;;31.30;19.30;;;;;;;3.34;71.24;101418.60;119046;1174;21862;-76
2021/10/25 03:29:01;;;;;;;28.10;17.80;;;;;;;3.32;71.19;101418.70;119073;1171;22891;-76
2021/10/25 03:31:29;;;;;;;31.30;18.10;;;;;;;3.31;71.24;101422.09;119204;1167;22881;-75
2021/10/25 03:33:58;;;;;;;28.60;19.40;;;;;;;3.30;71.13;101423.53;119205;1170;21841;-75
2021/10/25 03:36:33;;;;;;;30.10;18.50;;;;;;;3.29;71.14;101424.49;119214;1170;21864;-75
2021/10/25 03:39:04;;;;;;;28.10;19.70;;;;;;;3.25;71.06;101425.59;119185;1171;21864;-75
2021/10/25 03:41:41;;;;;;;29.40;19.30;;;;;;;3.22;71.04;101429.59;118897;1171;21858;-75
2021/10/25 03:44:14;;;;;;;32.00;19.60;;;;;;;3.19;71.03;101427.67;119183;1171;23419;-75
2021/10/25 03:55:21;;;;;;;29.70;18.00;;;;;;;3.03;71.29;101417.00;118082;1178;21866;-76
2021/10/25 04:26:25;;;;;;;33.10;19.10;;;;;;;2.87;71.69;101366.66;118156;1177;21890;-76
2021/10/25 04:28:44;;;;;;;30.50;19.50;;;;;;;2.87;71.79;101362.16;118260;1178;23526;-77
2021/10/25 04:31:12;;;;;;;28.00;18.80;;;;;;;2.86;71.77;101359.23;118285;1178;21859;-76
2021/10/25 04:33:55;;;;;;;33.40;19.20;;;;;;;2.86;71.77;101358.00;118274;1178;24690;-76
2021/10/25 04:36:55;;;;;;;30.90;20.40;;;;;;;2.87;71.82;101354.15;118350;1175;21898;-75
2021/10/25 04:39:43;;;;;;;30.00;19.20;;;;;;;2.90;71.80;101351.18;118817;1174;21929;-76
2021/10/25 04:42:20;;;;;;;29.90;20.10;;;;;;;2.91;71.74;101346.75;118956;1172;21974;-75
2021/10/25 04:44:52;;;;;;;34.80;20.40;;;;;;;2.95;71.67;101347.56;118754;1173;23516;-75
2021/10/25 04:47:23;;;;;;;32.40;19.70;;;;;;;2.99;71.68;101348.71;118860;1174;23547;-75
2021/10/25 04:49:52;;;;;;;33.60;19.40;;;;;;;3.03;71.65;101348.48;118841;1174;23877;-75
2021/10/25 04:52:30;;;;;;;28.40;18.70;;;;;;;3.05;71.55;101350.95;118444;1177;21969;-75
2021/10/25 04:54:58;;;;;;;31.10;18.00;;;;;;;3.00;71.28;101348.98;118424;1177;21865;-75
2021/10/25 04:57:25;;;;;;;27.90;18.30;;;;;;;2.93;71.08;101346.97;118368;1178;22740;-75
2021/10/25 04:59:53;;;;;;;28.30;18.00;;;;;;;2.86;71.04;101350.04;118345;1171;22899;-75
2021/10/25 05:02:23;;;;;;;31.40;18.90;;;;;;;2.84;71.21;101349.61;118430;1178;21872;-75
2021/10/25 05:04:55;;;;;;;29.60;17.80;;;;;;;2.84;71.31;101347.53;117956;1179;23686;-75
2021/10/25 05:07:23;;;;;;;30.30;19.00;;;;;;;2.84;71.24;101342.63;118181;1179;23531;-74
2021/10/25 05:09:52;;;;;;;31.20;18.50;;;;;;;2.83;71.12;101339.56;118389;1175;23657;-75
2021/10/25 05:12:20;;;;;;;28.40;17.50;;;;;;;2.82;71.10;101335.08;118830;1174;21949;-75
2021/10/25 05:14:48;;;;;;;25.00;17.50;;;;;;;2.82;71.07;101332.16;118836;1174;21873;-75
2021/10/25 05:17:17;;;;;;;28.80;18.40;;;;;;;2.81;70.97;101335.55;118853;1171;22011;-75
2021/10/25 05:19:47;;;;;;;25.90;15.90;;;;;;;2.79;70.97;101336.13;118714;1174;22037;-75
2021/10/25 05:22:21;;;;;;;24.00;16.80;;;;;;;2.78;70.98;101332.04;118745;1170;23483;-75
2021/10/25 05:24:49;;;;;;;31.20;17.00;;;;;;;2.77;70.93;101331.09;119144;1169;21869;-76
2021/10/25 05:27:20;;;;;;;26.40;16.60;;;;;;;2.76;70.98;101325.94;119055;1170;21911;-75
2021/10/25 05:29:48;;;;;;;22.90;16.20;;;;;;;2.77;71.02;101322.71;118391;1177;21956;-75
2021/10/25 05:32:17;;;;;;;30.60;20.10;;;;;;;2.80;71.10;101324.94;118302;1177;22891;-75
2021/10/25 05:34:45;;;;;;;105.20;70.20;;;;;;;2.83;71.07;101325.84;118443;1174;23531;-76
2021/10/25 05:37:13;;;;;;;91.20;53.50;;;;;;;2.84;71.03;101324.23;118390;1177;21874;-76
2021/10/25 05:39:41;;;;;;;83.40;43.40;;;;;;;2.87;70.98;101326.97;118627;1177;23448;-75
2021/10/25 05:42:10;;;;;;;56.80;27.70;;;;;;;2.90;70.91;101327.90;118501;1170;21861;-75
2021/10/25 05:44:38;;;;;;;37.40;21.70;;;;;;;2.89;70.81;101327.25;118579;1174;21860;-75
2021/10/25 05:47:06;;;;;;;50.70;26.30;;;;;;;2.86;70.75;101328.79;118346;1172;21889;-75
2021/10/25 05:49:34;;;;;;;54.20;26.90;;;;;;;2.83;70.79;101331.59;118686;1173;22964;-75
2021/10/25 05:52:03;;;;;;;46.80;24.90;;;;;;;2.82;70.85;101327.96;118843;1171;22912;-75
2021/10/25 05:54:31;;;;;;;49.40;25.20;;;;;;;2.83;70.88;101325.48;118733;1170;22881;-75
2021/10/25 05:57:06;;;;;;;53.30;29.10;;;;;;;2.84;70.78;101330.85;118776;1173;23511;-74
2021/10/25 05:59:36;;;;;;;48.30;26.70;;;;;;;2.85;70.73;101329.05;118836;1174;23574;-76
2021/10/25 06:04:54;;;;;;;44.60;24.60;;;;;;;2.94;70.91;101331.96;118632;1176;23415;-75
2021/10/25 06:07:25;;;;;;;70.70;44.50;;;;;;;3.00;70.95;101327.91;118697;1176;23411;-75
2021/10/25 06:09:55;;;;;;;90.00;55.60;;;;;;;3.06;70.85;101326.14;118684;1176;23422;-75
2021/10/25 06:12:26;;;;;;;69.60;41.10;;;;;;;3.10;70.72;101324.34;118693;1174;21843;-75
2021/10/25 06:15:21;;;;;;;50.80;32.20;;;;;;;3.11;70.62;101329.85;118893;1173;22865;-75
2021/10/25 06:20:26;;;;;;;35.60;22.60;;;;;;;3.04;70.50;101323.65;118997;1167;21910;-76
2021/10/25 06:22:56;;;;;;;30.20;18.70;;;;;;;3.01;70.45;101321.59;119093;1170;22951;-75
2021/10/25 06:25:26;;;;;;;32.80;21.30;;;;;;;2.99;70.50;101319.44;119235;1170;24103;-75
2021/10/25 06:28:05;;;;;;;47.20;26.00;;;;;;;3.01;70.63;101319.86;119243;1170;23504;-75
2021/10/25 06:30:35;;;;;;;48.10;28.10;;;;;;;3.09;70.85;101321.98;119205;1168;21883;-76
2021/10/25 06:33:04;;;;;;;35.10;23.70;;;;;;;3.17;70.76;101325.27;118849;1171;22305;-76
2021/10/25 06:36:01;;;;;;;38.70;23.70;;;;;;;3.25;70.72;101325.11;118828;1173;23618;-76
2021/10/25 06:41:23;;;;;;;40.80;23.30;;;;;;;3.43;70.74;101321.38;118724;1175;21858;-77
2021/10/25 06:43:59;;;;;;;39.00;23.20;;;;;;;3.54;70.62;101327.30;118549;1175;23316;-76
2021/10/25 06:46:44;;;;;;;37.30;23.00;;;;;;;3.64;70.43;101324.94;118265;1178;21861;-77
2021/10/25 06:49:23;;;;;;;40.20;22.60;;;;;;;3.72;70.28;101323.48;118014;1178;22195;-77
2021/10/25 06:51:56;;;;;;;36.30;22.50;;;;;;;3.81;70.15;101332.35;118265;1178;23543;-77
2021/10/25 06:54:28;;;;;;;36.20;21.30;;;;;;;3.89;70.00;101332.34;118313;1175;21877;-77
2021/10/25 06:57:01;;;;;;;27.00;18.20;;;;;;;3.96;69.70;101337.95;118305;1177;21892;-77
2021/10/25 06:59:36;;;;;;;26.80;18.50;;;;;;;4.02;69.51;101335.34;118731;1173;21947;-77
2021/10/25 07:02:08;;;;;;;37.50;24.90;;;;;;;4.09;69.37;101336.58;118932;1173;21864;-77
2021/10/25 07:04:37;;;;;;;29.60;18.40;;;;;;;4.17;69.21;101331.70;118960;1171;21864;-77
2021/10/25 07:07:10;;;;;;;25.60;18.80;;;;;;;4.26;69.01;101330.24;118700;1173;23582;-77
2021/10/25 07:10:09;;;;;;;26.60;19.50;;;;;;;4.36;68.90;101328.19;118424;1174;22605;-78
2021/10/25 07:12:45;;;;;;;29.40;16.90;;;;;;;4.46;68.76;101329.60;118737;1174;22218;-76
2021/10/25 07:15:14;;;;;;;51.10;33.20;;;;;;;4.56;68.56;101334.11;118734;1175;23440;-77
2021/10/25 08:11:03;;;;;;;17.00;12.00;;;;;;;8.30;60.22;101299.81;119060;1170;21881;-78
2021/10/25 08:13:39;;;;;;;16.60;11.30;;;;;;;8.46;59.67;101298.45;119166;1170;21856;-77
2021/10/25 08:21:20;;;;;;;18.30;11.80;;;;;;;8.76;58.48;101294.31;118741;1173;23463;-77
2021/10/25 08:23:51;;;;;;;15.50;10.50;;;;;;;8.84;57.83;101291.86;118641;1174;23537;-78
2021/10/25 08:26:37;;;;;;;16.10;9.50;;;;;;;8.90;57.42;101290.77;118924;1173;21868;-77
2021/10/25 08:29:05;;;;;;;14.90;10.50;;;;;;;8.97;57.21;101293.73;118791;1173;23440;-77
2021/10/25 08:31:37;;;;;;;15.50;10.70;;;;;;;9.01;56.62;101289.16;118803;1173;21865;-78
2021/10/25 08:42:26;;;;;;;15.20;10.50;;;;;;;9.18;56.06;101282.17;118745;1175;23730;-80
2021/10/25 08:45:11;;;;;;;17.10;8.80;;;;;;;9.25;55.87;101289.69;118875;1171;23452;-78
2021/10/25 08:47:48;;;;;;;218.80;29.30;;;;;;;9.31;55.93;101289.12;118458;1176;22545;-82
2021/10/25 08:50:23;;;;;;;19.30;11.40;;;;;;;9.43;55.92;101288.63;118428;1176;23513;-78
2021/10/25 08:52:53;;;;;;;18.30;10.30;;;;;;;9.53;55.58;101288.09;118361;1174;21861;-77
2021/10/25 08:55:30;;;;;;;15.00;9.10;;;;;;;9.57;55.07;101285.55;118530;1174;22317;-74
2021/10/25 08:57:59;;;;;;;14.90;7.90;;;;;;;9.59;54.55;101284.36;118773;1173;21894;-78
2021/10/25 09:00:49;;;;;;;16.80;8.60;;;;;;;9.54;54.10;101277.73;118367;1170;21905;-74
2021/10/25 09:03:42;;;;;;;14.60;8.80;;;;;;;9.48;53.78;101272.29;118732;1174;22892;-75
2021/10/25 09:06:14;;;;;;;10.50;7.00;;;;;;;9.46;53.48;101273.06;118608;1174;22336;-75
2021/10/25 09:08:43;;;;;;;12.40;7.40;;;;;;;9.44;53.18;101277.44;118788;1171;21905;-74
2021/10/25 09:11:11;;;;;;;13.90;8.10;;;;;;;9.46;53.31;101273.56;118614;1174;23520;-74
2021/10/25 09:13:53;;;;;;;12.80;7.30;;;;;;;9.49;53.05;101275.63;118581;1174;22770;-75
2021/10/25 09:16:21;;;;;;;13.20;7.50;;;;;;;9.51;53.11;101272.89;118738;1170;21854;-74
2021/10/25 09:18:49;;;;;;;15.90;8.00;;;;;;;9.59;53.13;101271.68;118850;1170;22888;-74
2021/10/25 09:21:19;;;;;;;12.30;7.90;;;;;;;9.69;53.36;101269.73;118733;1173;22888;-74
2021/10/25 09:23:50;;;;;;;17.30;9.50;;;;;;;9.84;53.69;101273.61;118489;1174;21911;-74
2021/10/25 09:26:24;;;;;;;14.20;8.50;;;;;;;10.03;53.79;101274.70;118633;1175;22828;-75
2021/10/25 09:28:56;;;;;;;12.50;7.20;;;;;;;10.17;53.06;101271.70;118746;1163;22891;-75
2021/10/25 09:31:31;;;;;;;15.00;8.00;;;;;;;10.29;52.86;101268.21;118565;1174;21904;-74
2021/10/25 09:34:09;;;;;;;12.30;8.40;;;;;;;10.47;52.54;101265.14;118606;1176;21894;-75
2021/10/25 09:37:14;;;;;;;22.70;12.10;;;;;;;10.62;52.26;101259.85;118386;1175;21879;-75
2021/10/25 09:39:54;;;;;;;16.30;10.40;;;;;;;10.81;52.13;101255.98;118524;1175;22787;-74
2021/10/25 09:51:13;;;;;;;23.10;14.60;;;;;;;11.87;51.42;101248.20;119064;1170;21914;-74
2021/10/25 09:54:04;;;;;;;21.20;11.70;;;;;;;12.25;50.20;101248.55;119163;1170;21858;-75
2021/10/25 09:56:45;;;;;;;22.70;16.20;;;;;;;12.47;48.54;101243.71;119122;1170;24115;-74
2021/10/25 09:59:50;;;;;;;16.90;10.40;;;;;;;12.65;48.12;101246.70;119107;1170;22601;-75
2021/10/25 10:02:25;;;;;;;10.80;7.00;;;;;;;12.95;48.11;101243.80;119108;1170;21855;-74
2021/10/25 10:05:03;;;;;;;12.80;7.70;;;;;;;13.22;47.53;101239.33;119093;1170;21846;-73
2021/10/25 10:07:35;;;;;;;10.30;6.00;;;;;;;13.54;46.98;101235.60;118991;1170;22874;-75
2021/10/25 10:10:17;;;;;;;9.50;5.30;;;;;;;13.85;45.37;101239.34;118990;1170;21853;-75
2021/10/25 10:12:51;;;;;;;10.00;5.70;;;;;;;14.16;44.29;101238.05;119141;1170;21856;-74
2021/10/25 10:15:29;;;;;;;8.70;5.80;;;;;;;14.49;44.06;101237.55;119005;1171;23531;-76
2021/10/25 10:18:19;;;;;;;9.40;5.20;;;;;;;14.93;44.00;101229.74;118991;1164;21844;-74
2021/10/25 10:21:14;;;;;;;10.40;5.20;;;;;;;15.34;41.59;101225.30;119197;1170;21893;-73
2021/10/25 10:23:51;;;;;;;14.10;6.00;;;;;;;15.54;40.41;101224.31;118826;1167;22884;-75
2021/10/25 10:26:19;;;;;;;9.60;5.90;;;;;;;15.79;40.52;101220.16;118778;1171;21885;-74
2021/10/25 10:28:52;;;;;;;12.20;6.50;;;;;;;16.31;40.98;101227.33;118865;1173;22894;-74
2021/10/25 10:31:26;;;;;;;10.30;5.40;;;;;;;16.69;39.66;101228.41;118874;1173;21864;-75
2021/10/25 10:34:17;;;;;;;17.10;5.70;;;;;;;17.02;39.20;101227.23;118752;1173;21871;-73
2021/10/25 10:36:55;;;;;;;7.40;4.80;;;;;;;17.50;39.51;101225.63;118898;1173;23422;-73
2021/10/25 10:39:39;;;;;;;9.00;5.00;;;;;;;17.83;36.88;101225.70;118770;1173;22709;-75
2021/10/25 10:42:10;;;;;;;10.20;4.80;;;;;;;17.83;36.02;101221.05;119042;1170;22197;-74
2021/10/25 10:44:58;;;;;;;7.90;4.90;;;;;;;18.16;37.14;101213.73;118978;1170;22314;-74
2021/10/25 10:47:44;;;;;;;9.20;4.80;;;;;;;18.44;34.98;101214.27;119142;1170;21855;-75
2021/10/25 10:50:25;;;;;;;10.80;6.00;;;;;;;18.35;33.87;101205.70;119051;1170;21878;-73
2021/10/25 10:53:09;;;;;;;8.70;5.30;;;;;;;18.35;34.05;101204.35;119152;1171;23528;-76
2021/10/25 10:55:42;;;;;;;10.30;4.50;;;;;;;18.20;33.06;101199.94;119123;1171;21863;-74
2021/10/25 11:01:02;;;;;;;10.70;5.30;;;;;;;17.35;34.27;101193.44;119052;1168;22961;-77
2021/10/25 11:03:31;;;;;;;12.80;4.80;;;;;;;17.10;34.68;101189.14;119127;1170;23922;-75
2021/10/25 11:06:16;;;;;;;8.40;4.60;;;;;;;16.67;34.27;101188.16;119256;1166;21834;-77
2021/10/25 11:08:47;;;;;;;7.50;5.10;;;;;;;16.08;34.71;101182.10;119074;1170;21959;-75
2021/10/25 11:11:21;;;;;;;9.80;4.80;;;;;;;15.59;35.44;101178.65;119059;1169;22707;-76
2021/10/25 11:14:01;;;;;;;9.80;5.00;;;;;;;15.20;35.92;101179.26;118976;1170;22742;-76
2021/10/25 11:16:41;;;;;;;6.80;4.20;;;;;;;14.85;36.34;101176.23;119082;1171;23537;-78
2021/10/25 11:19:11;;;;;;;9.80;4.60;;;;;;;14.45;36.96;101174.73;118980;1171;23518;-76
2021/10/25 11:21:48;;;;;;;12.20;4.60;;;;;;;14.21;37.80;101171.91;118930;1171;21862;-73
2021/10/25 11:24:19;;;;;;;8.40;4.90;;;;;;;14.04;38.13;101169.97;119151;1168;22882;-80
2021/10/25 11:26:54;;;;;;;8.30;5.10;;;;;;;13.87;38.47;101165.99;118917;1170;21860;-75
2021/10/25 11:29:31;;;;;;;10.70;5.50;;;;;;;13.79;38.86;101168.67;118823;1171;22602;-75
2021/10/25 11:32:08;;;;;;;11.10;6.50;;;;;;;13.66;38.57;101164.08;118956;1173;23470;-74
2021/10/25 11:34:41;;;;;;;7.80;5.90;;;;;;;13.53;38.66;101160.52;118900;1173;21864;-74
2021/10/25 11:37:18;;;;;;;9.20;5.10;;;;;;;13.43;38.88;101158.46;118949;1173;22877;-74
2021/10/25 11:42:28;;;;;;;7.10;4.50;;;;;;;13.18;39.24;101150.66;119022;1170;21867;-74
2021/10/25 11:45:00;;;;;;;8.00;4.60;;;;;;;13.10;39.39;101144.45;119061;1171;23508;-75
2021/10/25 11:47:34;;;;;;;7.80;4.40;;;;;;;13.03;39.58;101138.78;118986;1170;23419;-76
2021/10/25 11:50:20;;;;;;;6.90;4.70;;;;;;;12.97;39.65;101137.48;118917;1173;21875;-74
2021/10/25 11:53:00;;;;;;;11.30;4.40;;;;;;;12.91;39.70;101137.89;119064;1171;24684;-75
2021/10/25 11:55:32;;;;;;;10.10;5.60;;;;;;;12.87;39.84;101138.20;119268;1170;21835;-75
2021/10/25 11:58:05;;;;;;;10.10;5.30;;;;;;;12.82;39.89;101140.38;119146;1170;21910;-76
2021/10/25 12:00:40;;;;;;;8.60;4.50;;;;;;;12.77;39.96;101138.08;119316;1170;22037;-75
2021/10/25 12:03:19;;;;;;;10.20;5.80;;;;;;;12.71;40.13;101132.63;119078;1170;21855;-75
2021/10/25 12:05:47;;;;;;;15.40;7.70;;;;;;;12.68;40.40;101126.66;119127;1159;21837;-75
2021/10/25 12:08:17;;;;;;;10.50;4.90;;;;;;;12.68;40.51;101124.64;119147;1171;21860;-75
2021/10/25 12:10:48;;;;;;;9.10;4.90;;;;;;;12.69;40.57;101125.95;119219;1170;22829;-75
2021/10/25 12:13:17;;;;;;;8.50;5.20;;;;;;;12.70;40.47;101118.28;119128;1170;23472;-75
2021/10/25 12:15:58;;;;;;;8.00;4.60;;;;;;;12.67;40.46;101117.52;119179;1170;21895;-74
2021/10/25 12:18:27;;;;;;;8.00;3.90;;;;;;;12.61;40.48;101115.71;119192;1170;21859;-75
2021/10/25 12:20:58;;;;;;;5.90;3.80;;;;;;;12.58;40.75;101113.41;118880;1174;22101;-75
2021/10/25 12:23:29;;;;;;;8.70;5.10;;;;;;;12.58;40.88;101112.52;118785;1173;21981;-75
2021/10/25 12:26:00;;;;;;;10.80;5.00;;;;;;;12.61;41.09;101102.44;118971;1170;22708;-76
2021/10/25 12:28:28;;;;;;;6.00;3.90;;;;;;;12.67;41.27;101102.30;119053;1173;22889;-77
2021/10/25 12:31:14;;;;;;;6.10;4.00;;;;;;;12.70;41.12;101096.54;118872;1173;21868;-77
2021/10/25 12:33:45;;;;;;;8.40;4.10;;;;;;;12.69;40.96;101094.16;118817;1171;21861;-77
2021/10/25 12:36:20;;;;;;;7.70;5.60;;;;;;;12.72;41.29;101093.14;118825;1171;21874;-77
2021/10/25 12:38:54;;;;;;;12.40;5.40;;;;;;;12.76;41.11;101089.69;118880;1170;21856;-78
2021/10/25 12:41:23;;;;;;;10.10;5.40;;;;;;;12.81;41.20;101085.98;119134;1168;21863;-78
2021/10/25 12:43:59;;;;;;;10.10;5.10;;;;;;;12.86;41.09;101085.15;119014;1170;22593;-78
2021/10/25 12:46:33;;;;;;;7.40;4.20;;;;;;;12.89;40.99;101081.27;119130;1170;23600;-77
2021/10/25 12:49:04;;;;;;;7.60;4.80;;;;;;;12.92;40.70;101081.69;119218;1170;23489;-78
2021/10/25 12:51:40;;;;;;;9.40;4.20;;;;;;;12.90;40.38;101076.38;118663;1174;21863;-77
2021/10/25 12:54:12;;;;;;;9.80;4.40;;;;;;;12.88;40.39;101073.53;118724;1174;22911;-77
2021/10/25 12:56:46;;;;;;;14.50;5.60;;;;;;;12.90;40.36;101072.86;118667;1174;24273;-76
2021/10/25 12:59:17;;;;;;;8.50;4.70;;;;;;;12.90;40.22;101067.83;118707;1171;22825;-76
2021/10/25 13:01:56;;;;;;;7.50;4.50;;;;;;;12.90;40.15;101066.95;118672;1174;23622;-75
2021/10/25 13:04:27;;;;;;;9.20;4.40;;;;;;;12.93;40.26;101068.63;118760;1175;22765;-75
2021/10/25 13:06:55;;;;;;;13.30;5.10;;;;;;;12.97;40.34;101067.54;118781;1173;21924;-77
2021/10/25 13:09:23;;;;;;;8.70;4.90;;;;;;;12.99;40.25;101064.48;118883;1175;22887;-77
2021/10/25 13:11:55;;;;;;;7.90;4.00;;;;;;;12.98;40.03;101061.36;118807;1176;21877;-76
2021/10/25 13:14:23;;;;;;;7.70;4.60;;;;;;;12.98;39.97;101059.29;118840;1175;22016;-76
2021/10/25 13:16:53;;;;;;;14.20;8.00;;;;;;;12.98;40.09;101057.32;119098;1172;23507;-76
2021/10/25 13:19:21;;;;;;;7.60;4.90;;;;;;;13.00;40.26;101058.71;119159;1172;21872;-76
2021/10/25 13:21:50;;;;;;;7.40;4.60;;;;;;;13.00;40.17;101058.12;118881;1174;22965;-76
2021/10/25 13:24:18;;;;;;;7.90;4.30;;;;;;;13.02;40.14;101054.10;118858;1172;24183;-77
2021/10/25 13:26:51;;;;;;;9.00;4.20;;;;;;;13.01;40.02;101047.41;119146;1172;22708;-77
2021/10/25 13:29:19;;;;;;;7.50;5.40;;;;;;;13.01;40.01;101044.63;119087;1172;21998;-77
2021/10/25 13:31:51;;;;;;;10.90;5.60;;;;;;;13.03;40.06;101037.45;119178;1172;21859;-76
2021/10/25 13:34:21;;;;;;;11.60;6.00;;;;;;;13.07;40.04;101035.49;118895;1172;23652;-76
2021/10/25 13:36:51;;;;;;;21.90;7.90;;;;;;;13.09;39.89;101034.04;119043;1172;21879;-76
2021/10/25 13:39:20;;;;;;;11.00;7.00;;;;;;;13.11;39.73;101032.35;118893;1171;23519;-76
2021/10/25 13:41:53;;;;;;;8.40;5.90;;;;;;;13.13;39.71;101029.66;119272;1171;23446;-77